Time;durP1;ratioP1;P1;durP2;ratioP2;P2;SDS_P1;SDS_P2;PMS_P1;PMS_P2;Temp;Humidity;BMP_temperature;BMP_pressure;BME280_temperature;BME280_humidity;BME280_pressure;Samples;Min_cycle;Max_cycle;Signal;HPM_P1;HPM_P2
2022/06/03 00:00:42;;;;;;;3.22;2.50;;;;;;;;;;5087966;28;20108;-57
2022/06/03 00:03:22;;;;;;;3.70;2.67;;;;;;;;;;5080342;28;20059;-59
2022/06/03 00:06:10;;;;;;;8.93;2.50;;;;;;;;;;5087752;28;20016;-59
2022/06/03 00:08:38;;;;;;;5.43;2.38;;;;;;;;;;5074511;28;20085;-57
2022/06/03 00:11:25;;;;;;;3.83;2.30;;;14.70;99.90;;;;;;5082289;28;20032;-58
2022/06/03 00:14:04;;;;;;;5.18;2.40;;;;;;;;;;5087702;28;20028;-58
2022/06/03 00:16:31;;;;;;;3.33;2.50;;;;;;;;;;5092053;28;20055;-58
2022/06/03 00:18:58;;;;;;;4.65;2.30;;;;;;;;;;5088775;28;20012;-58
2022/06/03 00:21:27;;;;;;;6.05;2.67;;;;;;;;;;5086357;28;20028;-58
2022/06/03 00:24:01;;;;;;;4.22;2.20;;;;;;;;;;5081550;28;20028;-59
2022/06/03 00:26:29;;;;;;;;;;;;;;;;;;5091079;28;20012;-59
2022/06/03 00:28:56;;;;;;;4.63;2.47;;;;;;;;;;5086773;28;19916;-59
2022/06/03 00:31:46;;;;;;;5.97;2.55;;;;;;;;;;5082266;28;20025;-59
2022/06/03 00:34:15;;;;;;;2.92;2.40;;;;;;;;;;5080079;28;20532;-58
2022/06/03 00:36:49;;;;;;;4.55;2.63;;;;;;;;;;5089585;28;20031;-57
2022/06/03 00:39:16;;;;;;;;;;;;;;;;;;5092883;28;20063;-58
2022/06/03 00:41:54;;;;;;;3.78;2.25;;;;;;;;;;5083679;28;20398;-58
2022/06/03 00:44:40;;;;;;;4.72;2.35;;;;;;;;;;5084889;28;20062;-59
2022/06/03 00:47:07;;;;;;;4.32;2.15;;;;;;;;;;5082503;28;20536;-58
2022/06/03 00:49:43;;;;;;;4.05;2.20;;;;;;;;;;5085064;28;20427;-58
2022/06/03 00:52:28;;;;;;;3.08;2.28;;;;;;;;;;5085434;28;20076;-57
2022/06/03 00:55:24;;;;;;;5.43;2.35;;;;;;;;;;5082269;28;20056;-56
2022/06/03 00:58:08;;;;;;;3.90;2.20;;;;;;;;;;5091697;28;20023;-58
2022/06/03 01:00:42;;;;;;;2.92;2.40;;;;;;;;;;5090343;28;20048;-57
2022/06/03 01:03:13;;;;;;;3.90;2.15;;;;;;;;;;5087716;28;20042;-58
2022/06/03 01:05:59;;;;;;;4.43;2.30;;;;;;;;;;5081648;28;20122;-58
2022/06/03 01:08:35;;;;;;;2.50;2.17;;;;;;;;;;5093304;28;20442;-58
2022/06/03 01:11:05;;;;;;;3.40;2.00;;;;;;;;;;5087004;28;20096;-57
2022/06/03 01:13:50;;;;;;;4.07;2.55;;;;;;;;;;5092582;28;20085;-58
2022/06/03 01:16:17;;;;;;;3.45;2.10;;;;;;;;;;5081902;28;20645;-58
2022/06/03 01:18:52;;;;;;;3.08;2.17;;;;;;;;;;5086674;28;20195;-58
2022/06/03 01:21:22;;;;;;;4.32;2.45;;;;;;;;;;5081175;28;20036;-57
2022/06/03 01:23:55;;;;;;;3.80;2.10;;;;;;;;;;5088061;28;20032;-58
2022/06/03 01:26:31;;;;;;;3.85;2.33;;;;;;;;;;5090811;28;20085;-58
2022/06/03 01:29:16;;;;;;;6.55;2.88;;;;;;;;;;5090638;28;20039;-58
2022/06/03 01:32:02;;;;;;;6.10;2.60;;;;;;;;;;5086199;28;20184;-59
2022/06/03 01:34:50;;;;;;;5.00;2.63;;;;;;;;;;5083671;28;20032;-57
2022/06/03 01:37:20;;;;;;;5.50;2.58;;;;;;;;;;5083635;28;20026;-58
2022/06/03 01:40:08;;;;;;;5.57;2.85;;;;;;;;;;5092509;28;20016;-57
2022/06/03 01:42:55;;;;;;;5.75;2.55;;;;;;;;;;5094539;28;20028;-57
2022/06/03 01:45:40;;;;;;;4.03;2.58;;;;;;;;;;5085681;28;20020;-59
2022/06/03 01:48:25;;;;;;;3.30;2.42;;;;;;;;;;5084079;28;20028;-58
2022/06/03 01:51:28;;;;;;;5.40;2.70;;;13.90;99.90;;;;;;5084326;28;20111;-59
2022/06/03 01:54:24;;;;;;;4.78;2.58;;;13.90;99.90;;;;;;5069655;28;20043;-58
2022/06/03 01:57:16;;;;;;;4.40;2.70;;;13.90;99.90;;;;;;5088465;28;20051;-59
2022/06/03 02:00:07;;;;;;;5.95;2.42;;;13.90;99.90;;;;;;5093799;28;20028;-58
2022/06/03 02:02:52;;;;;;;4.47;2.50;;;14.00;99.90;;;;;;5074699;28;20066;-58
2022/06/03 02:05:37;;;;;;;4.28;2.60;;;13.90;99.90;;;;;;5082701;28;20107;-58
2022/06/03 02:08:40;;;;;;;5.30;2.70;;;13.80;99.90;;;;;;5080444;28;20379;-59
2022/06/03 02:11:24;;;;;;;5.03;2.38;;;13.80;99.90;;;;;;5079603;28;20028;-58
2022/06/03 02:14:08;;;;;;;4.05;2.47;;;13.60;99.90;;;;;;5093986;28;20055;-57
2022/06/03 02:16:58;;;;;;;4.80;2.63;;;13.70;99.90;;;;;;5080271;28;20028;-59
2022/06/03 02:19:49;;;;;;;4.28;2.85;;;13.70;99.90;;;;;;5088797;28;20107;-58
2022/06/03 02:23:03;;;;;;;3.58;2.75;;;13.50;99.90;;;;;;5082854;28;20646;-58
2022/06/03 02:25:56;;;;;;;4.78;2.85;;;13.30;99.90;;;;;;5084539;28;20028;-58
2022/06/03 02:30:24;;;;;;;3.42;2.50;;;13.10;99.90;;;;;;5091716;28;20029;-58
2022/06/03 02:32:00;;;;;;;5.38;2.70;;;13.20;99.90;;;;;;5074024;28;20044;-57
2022/06/03 02:34:51;;;;;;;5.07;2.72;;;13.10;99.90;;;;;;5085733;28;20025;-58
2022/06/03 02:37:52;;;;;;;4.53;2.90;;;13.10;99.90;;;;;;5090178;28;20028;-57
2022/06/03 02:40:41;;;;;;;2.83;2.40;;;12.90;99.90;;;;;;5083177;28;20086;-58
2022/06/03 02:43:46;;;;;;;2.83;2.50;;;12.70;99.90;;;;;;5085832;28;20027;-58
2022/06/03 02:46:38;;;;;;;3.45;2.55;;;12.50;99.90;;;;;;5094721;28;20039;-57
2022/06/03 02:49:37;;;;;;;3.90;2.78;;;12.70;99.90;;;;;;5090924;28;20024;-58
2022/06/03 02:52:32;;;;;;;5.18;2.97;;;12.90;99.90;;;;;;5095162;28;20013;-58
2022/06/03 02:55:06;;;;;;;4.25;2.80;;;;;;;;;;5088325;28;20028;-57
2022/06/03 02:57:56;;;;;;;3.92;3.00;;;12.50;99.90;;;;;;5077961;28;20105;-58
2022/06/03 03:00:50;;;;;;;4.55;2.80;;;12.90;99.90;;;;;;5082238;28;20027;-58
2022/06/03 03:03:35;;;;;;;3.80;3.20;;;;;;;;;;5082315;28;20021;-57
2022/06/03 03:06:12;;;;;;;4.38;3.10;;;;;;;;;;5095566;28;20024;-57
2022/06/03 03:08:51;;;;;;;4.43;2.60;;;;;;;;;;5100142;28;20024;-57
2022/06/03 03:11:26;;;;;;;4.38;3.20;;;;;;;;;;5085877;28;20020;-58
2022/06/03 03:14:05;;;;;;;3.25;2.80;;;;;;;;;;5087965;28;20064;-58
2022/06/03 03:16:44;;;;;;;6.38;3.20;;;;;;;;;;5075826;28;20039;-58
2022/06/03 03:19:23;;;;;;;4.13;3.20;;;;;;;;;;5088713;28;20160;-57
2022/06/03 03:22:12;;;;;;;4.43;3.00;;;;;;;;;;5080636;28;20028;-58
2022/06/03 03:25:05;;;;;;;5.15;3.13;;;;;;;;;;5089343;28;20074;-57
2022/06/03 03:27:54;;;;;;;4.45;3.42;;;;;;;;;;5094495;28;20397;-57
2022/06/03 03:30:27;;;;;;;6.57;4.25;;;;;;;;;;5090579;28;20040;-57
2022/06/03 03:32:53;;;;;;;;;;;;;;;;;;5095340;28;20460;-56
2022/06/03 03:35:42;;;;;;;4.82;4.10;;;;;;;;;;5083329;28;19923;-58
2022/06/03 03:38:28;;;;;;;5.80;3.70;;;;;;;;;;5059976;28;20054;-58
2022/06/03 03:41:06;;;;;;;6.10;3.78;;;;;;;;;;5069421;28;20028;-58
2022/06/03 03:43:49;;;;;;;6.40;4.07;;;;;;;;;;5096826;28;20020;-57
2022/06/03 03:46:38;;;;;;;6.20;4.00;;;;;;;;;;5085331;28;20024;-58
2022/06/03 03:49:17;;;;;;;5.05;3.63;;;;;;;;;;5086901;28;20028;-58
2022/06/03 03:51:52;;;;;;;5.70;4.15;;;;;;;;;;5086569;28;20037;-58
2022/06/03 03:54:33;;;;;;;7.18;4.60;;;;;;;;;;5076078;28;20031;-58
2022/06/03 03:57:17;;;;;;;5.65;4.63;;;12.60;99.90;;;;;;5088206;28;20055;-57
2022/06/03 03:59:49;;;;;;;6.28;4.97;;;12.60;99.90;;;;;;5094128;28;20040;-57
2022/06/03 04:02:45;;;;;;;6.85;5.22;;;12.50;99.90;;;;;;5089615;28;20031;-58
2022/06/03 04:05:30;;;;;;;9.82;5.18;;;12.20;99.90;;;;;;5086592;28;20786;-58
2022/06/03 04:08:30;;;;;;;7.60;5.18;;;12.10;99.90;;;;;;5088216;28;20103;-58
2022/06/03 04:11:07;;;;;;;7.15;4.90;;;12.10;99.90;;;;;;5080824;28;20656;-59
2022/06/03 04:14:00;;;;;;;7.43;5.18;;;12.10;99.90;;;;;;5077041;28;20028;-58
2022/06/03 04:16:51;;;;;;;8.02;5.40;;;12.30;99.90;;;;;;5090916;28;20074;-57
2022/06/03 04:19:53;;;;;;;8.73;5.25;;;12.30;99.90;;;;;;5080529;28;20527;-58
2022/06/03 04:22:59;;;;;;;7.13;5.43;;;12.10;99.90;;;;;;5084806;28;20024;-59
2022/06/03 04:25:31;;;;;;;9.15;5.13;;;12.30;99.90;;;;;;5087761;28;20109;-57
2022/06/03 04:28:32;;;;;;;7.00;5.47;;;12.40;99.90;;;;;;5087042;28;20044;-57
2022/06/03 04:31:32;;;;;;;9.38;5.53;;;12.60;99.90;;;;;;5089590;28;20016;-59
2022/06/03 04:34:41;;;;;;;7.80;5.78;;;13.00;99.90;;;;;;5087634;28;20025;-58
2022/06/03 04:37:13;;;;;;;8.05;5.63;;;12.70;99.90;;;;;;5081370;28;21296;-58
2022/06/03 04:39:53;;;;;;;6.25;5.45;;;12.70;99.90;;;;;;5091191;28;20020;-58
2022/06/03 04:42:48;;;;;;;7.63;5.35;;;13.00;99.90;;;;;;5086578;28;20479;-58
2022/06/03 04:45:14;;;;;;;9.48;5.38;;;12.80;99.90;;;;;;5093899;28;20020;-58
2022/06/03 04:47:50;;;;;;;7.07;5.43;;;;;;;;;;5087545;28;20023;-59
2022/06/03 04:50:28;;;;;;;8.82;5.63;;;13.10;99.90;;;;;;5082456;28;20136;-59
2022/06/03 04:53:11;;;;;;;7.47;5.18;;;13.30;99.90;;;;;;5085599;28;20032;-58
2022/06/03 04:55:37;;;;;;;;;;;13.50;99.90;;;;;;5082583;28;20027;-57
2022/06/03 04:58:11;;;;;;;9.32;5.68;;;13.30;99.90;;;;;;5088773;28;19907;-59
2022/06/03 05:00:59;;;;;;;9.07;5.70;;;;;;;;;;5084508;28;20114;-58
2022/06/03 05:04:02;;;;;;;6.60;5.43;;;13.20;99.90;;;;;;5083975;28;20331;-57
2022/06/03 05:07:11;;;;;;;7.72;5.68;;;13.50;99.90;;;;;;5093816;28;20047;-59
2022/06/03 05:09:57;;;;;;;8.90;5.82;;;;;;;;;;5085749;28;20024;-60
2022/06/03 05:12:54;;;;;;;7.97;5.53;;;13.80;99.90;;;;;;5094068;28;20124;-57
2022/06/03 05:15:32;;;;;;;9.40;5.47;;;14.30;99.90;;;;;;5068057;28;20112;-58
2022/06/03 05:18:01;;;;;;;11.20;5.47;;;14.20;99.90;;;;;;5083087;28;20016;-59
2022/06/03 05:20:35;;;;;;;8.90;5.70;;;14.20;99.90;;;;;;5091596;28;20027;-58
2022/06/03 05:23:37;;;;;;;14.02;5.43;;;14.40;99.90;;;;;;5086640;28;20024;-58
2022/06/03 05:26:05;;;;;;;9.82;5.40;;;14.60;99.90;;;;;;5077542;28;20069;-58
2022/06/03 05:28:52;;;;;;;8.40;5.00;;;14.40;99.90;;;;;;5078939;28;20043;-59
2022/06/03 05:31:27;;;;;;;7.13;4.47;;;14.40;99.90;;;;;;5079634;28;20032;-59
2022/06/03 05:34:41;;;;;;;7.85;4.72;;;14.50;99.90;;;;;;5086953;28;20078;-59
2022/06/03 05:37:44;;;;;;;9.82;5.25;;;14.70;99.90;;;;;;5092682;28;20023;-58
2022/06/03 05:41:05;;;;;;;14.63;7.72;;;14.70;99.90;;;;;;5079824;28;20107;-57
2022/06/03 05:43:48;;;;;;;7.32;5.18;;;;;;;;;;5088928;28;20035;-58
2022/06/03 05:46:25;;;;;;;12.10;6.22;;;14.70;99.90;;;;;;5085677;28;20026;-60
2022/06/03 05:49:10;;;;;;;13.00;6.32;;;15.10;99.90;;;;;;5091035;28;20024;-58
2022/06/03 05:52:03;;;;;;;11.32;6.13;;;15.20;99.90;;;;;;5080139;28;20019;-57
2022/06/03 05:54:39;;;;;;;8.95;5.05;;;15.30;99.90;;;;;;5081110;28;20127;-57
2022/06/03 05:57:26;;;;;;;11.48;4.90;;;15.10;99.90;;;;;;5084277;28;20460;-57
2022/06/03 05:59:55;;;;;;;7.93;4.47;;;15.10;99.90;;;;;;5088086;28;20484;-57
2022/06/03 06:02:49;;;;;;;10.15;5.07;;;15.20;99.90;;;;;;5081273;28;20043;-57
2022/06/03 06:05:36;;;;;;;7.70;4.53;;;15.30;99.90;;;;;;5086832;28;20115;-56
2022/06/03 06:08:40;;;;;;;9.93;5.68;;;15.50;99.90;;;;;;5089407;28;20721;-56
2022/06/03 06:11:27;;;;;;;7.23;4.20;;;15.30;99.90;;;;;;5081745;28;20035;-55
2022/06/03 06:14:13;;;;;;;7.45;4.53;;;15.30;99.90;;;;;;5076933;28;20107;-57
2022/06/03 06:16:41;;;;;;;12.00;5.13;;;15.60;99.90;;;;;;5082678;28;20031;-57
2022/06/03 06:19:38;;;;;;;11.05;4.95;;;15.70;99.90;;;;;;5090230;28;20101;-58
2022/06/03 06:22:29;;;;;;;8.75;4.53;;;15.60;99.90;;;;;;5086580;28;20046;-57
2022/06/03 06:25:06;;;;;;;9.80;4.75;;;15.60;99.90;;;;;;5070615;28;20038;-57
2022/06/03 06:28:09;;;;;;;8.98;4.97;;;15.70;99.90;;;;;;5088577;28;20102;-57
2022/06/03 06:30:34;;;;;;;11.48;5.00;;;15.90;99.90;;;;;;5080764;28;20020;-56
2022/06/03 06:33:24;;;;;;;12.25;5.38;;;16.10;99.90;;;;;;5079488;28;20048;-58
2022/06/03 06:36:09;;;;;;;15.13;5.65;;;16.40;99.90;;;;;;5071218;28;20533;-57
2022/06/03 06:39:08;;;;;;;15.95;5.50;;;16.40;99.90;;;;;;5077689;28;20472;-57
2022/06/03 06:42:00;;;;;;;11.77;5.57;;;16.20;99.90;;;;;;5082250;28;20484;-57
2022/06/03 06:44:35;;;;;;;10.27;4.85;;;16.30;99.90;;;;;;5073485;28;20055;-56
2022/06/03 06:47:21;;;;;;;10.55;5.00;;;16.40;99.90;;;;;;5080685;28;20507;-57
2022/06/03 06:50:21;;;;;;;10.73;5.20;;;16.60;99.90;;;;;;5088230;28;20111;-59
2022/06/03 06:53:11;;;;;;;12.75;5.32;;;16.60;99.90;;;;;;5087216;28;20047;-57
2022/06/03 06:56:03;;;;;;;14.40;5.47;;;16.60;99.90;;;;;;5079852;28;20530;-56
2022/06/03 06:58:50;;;;;;;14.07;6.22;;;16.70;99.90;;;;;;5087857;28;20111;-57
2022/06/03 07:01:22;;;;;;;11.73;5.10;;;16.80;99.90;;;;;;5082871;28;20387;-57
2022/06/03 07:03:52;;;;;;;15.00;5.72;;;16.70;99.90;;;;;;5076911;28;20450;-58
2022/06/03 07:06:27;;;;;;;16.85;6.47;;;16.60;99.90;;;;;;5081186;28;20089;-57
2022/06/03 07:09:07;;;;;;;14.25;6.13;;;16.80;99.90;;;;;;5084840;28;20108;-57
2022/06/03 07:11:50;;;;;;;15.43;6.13;;;16.80;99.90;;;;;;5084022;28;20109;-57
2022/06/03 07:14:25;;;;;;;14.30;5.60;;;16.90;99.90;;;;;;5077290;28;20042;-57
2022/06/03 07:20:15;;;;;;;15.55;5.30;;;17.10;99.90;;;;;;5086543;28;20042;-58
2022/06/03 07:22:55;;;;;;;11.45;5.20;;;17.00;99.90;;;;;;5086634;28;20018;-57
2022/06/03 07:25:24;;;;;;;29.25;18.15;;;17.50;99.90;;;;;;5086950;28;20506;-57
2022/06/03 07:28:00;;;;;;;11.73;5.38;;;17.50;99.90;;;;;;5085627;28;20027;-56
2022/06/03 07:31:01;;;;;;;17.85;6.05;;;17.60;99.90;;;;;;5072196;28;20086;-56
2022/06/03 07:33:29;;;;;;;14.68;5.43;;;17.80;99.90;;;;;;5091914;28;20068;-55
2022/06/03 07:36:08;;;;;;;13.00;6.05;;;17.70;99.90;;;;;;5092438;28;20534;-57
2022/06/03 07:38:49;;;;;;;9.93;5.28;;;17.80;99.90;;;;;;5092850;28;20020;-56
2022/06/03 07:41:37;;;;;;;12.05;5.63;;;18.00;99.90;;;;;;5089814;28;20025;-56
2022/06/03 07:44:25;;;;;;;15.02;5.50;;;18.40;99.90;;;;;;5088005;28;20020;-57
2022/06/03 07:47:00;;;;;;;10.13;5.53;;;18.30;99.90;;;;;;5087701;28;20042;-57
2022/06/03 07:49:28;;;;;;;11.27;5.25;;;18.20;99.90;;;;;;5087798;28;20023;-55
2022/06/03 07:52:01;;;;;;;10.27;4.30;;;18.50;99.90;;;;;;5089376;28;20035;-56
2022/06/03 07:54:34;;;;;;;9.98;4.43;;;18.60;99.90;;;;;;5096867;28;20483;-57
2022/06/03 07:57:09;;;;;;;9.07;4.68;;;18.70;99.90;;;;;;5085621;28;20932;-56
2022/06/03 07:59:38;;;;;;;9.48;3.88;;;18.60;99.90;;;;;;5079636;28;20024;-57
2022/06/03 08:02:14;;;;;;;10.77;3.83;;;18.60;99.90;;;;;;5081302;28;20059;-58
2022/06/03 08:04:40;;;;;;;12.20;4.10;;;18.80;99.90;;;;;;5070833;28;20100;-58
2022/06/03 08:12:58;;;;;;;8.38;4.22;;;18.90;99.90;;;;;;5092894;28;20042;-59
2022/06/03 08:15:29;;;;;;;9.00;3.75;;;18.90;99.90;;;;;;5090456;28;21064;-58
2022/06/03 08:17:55;;;;;;;12.57;3.67;;;19.20;99.90;;;;;;5075211;28;20033;-56
2022/06/03 08:20:23;;;;;;;7.85;3.20;;;19.20;99.90;;;;;;5089317;28;20026;-57
2022/06/03 08:22:50;;;;;;;10.15;3.05;;;19.40;99.90;;;;;;5085421;28;20040;-58
2022/06/03 08:25:22;;;;;;;8.52;3.67;;;19.30;99.90;;;;;;5079926;28;20055;-57
2022/06/03 08:27:49;;;;;;;7.50;3.90;;;19.30;99.90;;;;;;5082890;28;20465;-57
2022/06/03 08:30:23;;;;;;;12.70;3.72;;;19.40;99.90;;;;;;5087112;28;20414;-58
2022/06/03 08:32:53;;;;;;;12.70;3.45;;;19.50;99.90;;;;;;5071830;28;20497;-57
2022/06/03 08:35:23;;;;;;;9.35;3.72;;;19.60;99.90;;;;;;5083047;28;20490;-57
2022/06/03 08:37:59;;;;;;;11.52;3.75;;;19.90;99.90;;;;;;5089347;28;20024;-57
2022/06/03 08:40:51;;;;;;;8.82;3.45;;;20.30;99.90;;;;;;5080544;28;20032;-58
2022/06/03 08:43:22;;;;;;;5.95;2.80;;;20.40;99.90;;;;;;5095779;28;20043;-56
2022/06/03 08:45:55;;;;;;;8.45;2.67;;;21.00;99.90;;;;;;5074170;28;20478;-58
2022/06/03 08:48:26;;;;;;;;;;;20.60;99.90;;;;;;5075390;28;20099;-56
2022/06/03 08:50:55;;;;;;;6.88;2.95;;;21.00;99.90;;;;;;5075782;28;19934;-58
2022/06/03 08:53:44;;;;;;;7.32;2.67;;;21.00;99.90;;;;;;5076232;28;20028;-57
2022/06/03 08:56:22;;;;;;;6.05;2.42;;;18.80;99.90;;;;;;5086433;28;20059;-58
2022/06/03 08:58:58;;;;;;;9.20;2.60;;;21.10;99.90;;;;;;5077837;28;20035;-58
2022/06/03 09:01:55;;;;;;;4.05;2.38;;;20.80;99.90;;;;;;5083171;28;20025;-58
2022/06/03 09:04:20;;;;;;;7.65;2.92;;;20.80;99.90;;;;;;5086546;28;20038;-59
2022/06/03 09:07:23;;;;;;;6.60;2.78;;;20.70;99.90;;;;;;5080923;28;20020;-56
2022/06/03 09:10:27;;;;;;;6.03;2.42;;;20.80;99.90;;;;;;5075354;28;20102;-57
2022/06/03 09:13:04;;;;;;;6.15;2.15;;;20.90;99.90;;;;;;5078865;28;20063;-57
2022/06/03 09:15:37;;;;;;;5.10;2.05;;;21.10;99.90;;;;;;5087390;28;20047;-57
2022/06/03 09:18:26;;;;;;;4.65;2.42;;;21.20;99.90;;;;;;5080019;28;20662;-58
2022/06/03 09:21:01;;;;;;;3.78;1.90;;;21.10;99.90;;;;;;5089845;28;20079;-58
2022/06/03 09:23:28;;;;;;;5.63;2.20;;;21.30;99.90;;;;;;5083880;28;20400;-57
2022/06/03 09:26:00;;;;;;;9.10;2.38;;;21.30;99.90;;;;;;5086983;28;20075;-58
2022/06/03 09:28:34;;;;;;;4.25;1.77;;;21.40;99.90;;;;;;5084985;28;20480;-58
2022/06/03 09:31:04;;;;;;;8.05;2.13;;;21.40;99.90;;;;;;5090239;28;20288;-57
2022/06/03 09:33:31;;;;;;;4.28;1.98;;;21.50;99.90;;;;;;5092092;28;20036;-57
2022/06/03 09:36:01;;;;;;;6.40;1.85;;;21.60;99.90;;;;;;5089784;28;20032;-58
2022/06/03 09:38:41;;;;;;;3.70;1.80;;;21.40;99.90;;;;;;5096984;28;20024;-57
2022/06/03 09:41:08;;;;;;;4.38;1.70;;;21.70;99.90;;;;;;5082899;28;20042;-57
2022/06/03 09:43:42;;;;;;;3.78;1.65;;;21.90;99.90;;;;;;5084645;28;20123;-58
2022/06/03 09:46:14;;;;;;;5.90;1.60;;;21.80;99.90;;;;;;5075586;28;20019;-57
2022/06/03 09:48:41;;;;;;;7.22;2.13;;;21.50;99.90;;;;;;5083876;28;20029;-58
2022/06/03 09:51:19;;;;;;;5.30;2.15;;;21.80;99.90;;;;;;5094682;28;20031;-57
2022/06/03 09:53:45;;;;;;;7.22;2.05;;;21.90;99.90;;;;;;5085396;28;20111;-59
2022/06/03 09:56:32;;;;;;;4.25;1.48;;;22.00;99.90;;;;;;5091070;28;20031;-59
2022/06/03 09:59:00;;;;;;;8.07;1.77;;;22.10;99.90;;;;;;5088231;28;20032;-59
2022/06/03 10:01:28;;;;;;;3.33;1.40;;;22.10;99.90;;;;;;5084004;28;20427;-57
2022/06/03 10:04:00;;;;;;;3.35;1.48;;;22.20;99.90;;;;;;5092713;28;20100;-58
2022/06/03 10:06:43;;;;;;;3.78;1.30;;;22.20;99.90;;;;;;5082673;28;20033;-56
2022/06/03 10:14:37;;;;;;;4.97;1.80;;;22.40;99.90;;;;;;5084367;28;20036;-57
2022/06/03 10:17:05;;;;;;;5.40;1.73;;;22.50;99.90;;;;;;5090338;28;20028;-57
2022/06/03 10:19:30;;;;;;;3.85;1.08;;;22.30;99.90;;;;;;5081953;28;20016;-58
2022/06/03 10:21:56;;;;;;;2.00;1.30;;;22.30;99.90;;;;;;5085085;28;20039;-57
2022/06/03 10:24:31;;;;;;;3.28;1.25;;;22.40;99.90;;;;;;5077295;28;20064;-57
2022/06/03 10:27:00;;;;;;;4.93;1.30;;;22.40;99.90;;;;;;5072643;28;20114;-56
2022/06/03 10:29:27;;;;;;;1.95;1.30;;;22.40;99.90;;;;;;5076502;28;20040;-56
2022/06/03 10:32:00;;;;;;;7.00;1.70;;;22.30;99.90;;;;;;5084441;28;20040;-56
2022/06/03 10:34:31;;;;;;;1.65;1.30;;;22.40;99.90;;;;;;5079585;28;20042;-57
2022/06/03 10:36:57;;;;;;;3.63;1.50;;;22.60;99.90;;;;;;5085662;28;20063;-59
2022/06/03 10:39:28;;;;;;;2.75;1.50;;;22.50;99.90;;;;;;5087123;28;20509;-57
2022/06/03 10:41:58;;;;;;;5.82;1.48;;;22.40;99.90;;;;;;5086553;28;20023;-57
2022/06/03 10:44:28;;;;;;;2.40;1.70;;;22.60;99.90;;;;;;5090988;28;20460;-58
2022/06/03 10:47:15;;;;;;;7.93;2.13;;;22.60;99.90;;;;;;5095469;28;20027;-59
2022/06/03 10:49:59;;;;;;;3.20;1.55;;;22.80;99.90;;;;;;5088668;28;20031;-57
2022/06/03 11:01:30;;;;;;;3.70;1.13;;;22.60;99.90;;;;;;5082384;28;20095;-57
2022/06/03 11:03:56;;;;;;;3.67;1.17;;;22.60;99.90;;;;;;5091369;28;20419;-58
2022/06/03 11:06:25;;;;;;;3.72;1.40;;;22.80;99.90;;;;;;5085798;28;20059;-57
2022/06/03 11:08:58;;;;;;;3.55;1.60;;;22.90;99.90;;;;;;5088452;28;20028;-58
2022/06/03 11:12:00;;;;;;;5.03;1.40;;;23.00;99.90;;;;;;5094756;28;20031;-58
2022/06/03 11:14:36;;;;;;;1.92;1.38;;;23.20;99.90;;;;;;5093407;28;20255;-58
2022/06/03 11:17:18;;;;;;;2.92;1.30;;;23.10;99.90;;;;;;5084931;28;20558;-57
2022/06/03 11:19:48;;;;;;;5.32;1.70;;;23.10;99.90;;;;;;5085141;28;20028;-58
2022/06/03 11:22:30;;;;;;;2.42;1.30;;;22.80;99.90;;;;;;5092290;28;20435;-58
2022/06/03 11:25:17;;;;;;;2.30;1.40;;;22.80;99.90;;;;;;5091779;28;20023;-57
2022/06/03 11:27:55;;;;;;;2.53;1.20;;;22.90;99.90;;;;;;5088185;28;20033;-57
2022/06/03 11:30:31;;;;;;;7.13;1.30;;;23.00;99.90;;;;;;5077792;28;20012;-57
2022/06/03 11:33:06;;;;;;;4.10;1.15;;;23.00;99.90;;;;;;5078082;28;20471;-59
2022/06/03 11:35:48;;;;;;;4.40;1.17;;;23.30;99.90;;;;;;5091894;28;20042;-57
2022/06/03 11:38:21;;;;;;;5.55;1.60;;;23.20;99.90;;;;;;5083952;28;20387;-58
2022/06/03 11:40:54;;;;;;;3.05;1.30;;;23.20;99.90;;;;;;5080169;28;20027;-59
2022/06/03 11:43:34;;;;;;;1.90;1.10;;;23.40;99.90;;;;;;5083474;28;20028;-57
2022/06/03 11:46:15;;;;;;;2.55;1.40;;;23.60;99.90;;;;;;5091682;28;20027;-58
2022/06/03 11:48:43;;;;;;;2.00;1.25;;;23.70;99.90;;;;;;5080243;28;20097;-59
2022/06/03 11:51:11;;;;;;;2.58;1.48;;;23.70;99.90;;;;;;5083971;28;20019;-58
2022/06/03 11:53:48;;;;;;;2.88;1.67;;;23.90;99.90;;;;;;5083655;28;20424;-58
2022/06/03 11:56:17;;;;;;;3.03;1.65;;;23.90;99.90;;;;;;5087567;28;20173;-57
2022/06/03 11:59:20;;;;;;;4.32;1.80;;;23.80;99.90;;;;;;5094513;28;20028;-58
2022/06/03 12:01:49;;;;;;;5.40;1.67;;;23.90;99.90;;;;;;5083597;28;20043;-57
2022/06/03 12:04:20;;;;;;;4.07;1.50;;;23.80;99.90;;;;;;5093211;28;20294;-57
2022/06/03 12:07:18;;;;;;;1.77;1.45;;;23.80;99.90;;;;;;5079640;28;20360;-56
2022/06/03 12:09:55;;;;;;;3.65;1.42;;;24.10;99.90;;;;;;5085478;28;20089;-58
2022/06/03 12:15:41;;;;;;;4.15;1.60;;;24.20;99.90;;;;;;5082403;28;20061;-59
2022/06/03 12:18:07;;;;;;;4.18;1.83;;;24.20;99.90;;;;;;5087109;28;20058;-59
2022/06/03 12:20:32;;;;;;;4.30;1.48;;;24.20;99.90;;;;;;5088281;28;20485;-58
2022/06/03 12:23:17;;;;;;;4.05;1.58;;;24.20;99.90;;;;;;5089304;28;20115;-58
2022/06/03 12:25:50;;;;;;;2.95;1.60;;;24.20;99.90;;;;;;5086610;28;20061;-58
2022/06/03 12:28:31;;;;;;;3.53;1.48;;;24.10;99.90;;;;;;5087135;28;20031;-59
2022/06/03 12:31:15;;;;;;;6.43;1.70;;;24.20;99.90;;;;;;5085462;28;20035;-58
2022/06/03 12:33:53;;;;;;;3.85;1.80;;;24.30;99.90;;;;;;5078865;28;20028;-58
2022/06/03 12:36:25;;;;;;;2.28;1.52;;;24.40;99.90;;;;;;5071137;28;20023;-59
2022/06/03 12:39:05;;;;;;;4.85;1.40;;;24.30;99.90;;;;;;5082889;28;20031;-58
2022/06/03 12:41:46;;;;;;;8.68;1.92;;;24.30;99.90;;;;;;5088106;28;20570;-58
2022/06/03 12:44:46;;;;;;;4.47;1.70;;;24.40;99.90;;;;;;5080808;28;20046;-59
2022/06/03 12:47:17;;;;;;;3.10;1.52;;;24.50;99.90;;;;;;5073382;28;20085;-59
2022/06/03 12:49:43;;;;;;;4.78;1.50;;;24.70;99.90;;;;;;5087085;28;20547;-58
2022/06/03 12:52:20;;;;;;;6.47;1.60;;;24.60;99.90;;;;;;5081594;28;20107;-58
2022/06/03 12:54:56;;;;;;;2.80;1.33;;;24.70;99.90;;;;;;5082169;28;20114;-59
2022/06/03 12:57:37;;;;;;;4.18;1.67;;;24.70;99.90;;;;;;5080182;28;20036;-58
2022/06/03 13:00:17;;;;;;;3.28;2.30;;;24.80;99.90;;;;;;5085112;28;20032;-60
2022/06/03 13:02:54;;;;;;;4.10;1.92;;;24.60;99.90;;;;;;5091605;28;20031;-59
2022/06/03 13:05:28;;;;;;;4.63;1.52;;;24.70;99.90;;;;;;5085038;28;20107;-58
2022/06/03 13:08:00;;;;;;;6.70;1.55;;;24.90;99.90;;;;;;5082695;28;20028;-59
2022/06/03 13:10:29;;;;;;;6.63;1.98;;;24.90;99.90;;;;;;5091803;28;20440;-58
2022/06/03 13:13:16;;;;;;;3.67;1.70;;;24.80;99.90;;;;;;5081221;28;20067;-59
2022/06/03 13:15:43;;;;;;;4.03;1.45;;;24.80;99.90;;;;;;5078983;28;20629;-58
2022/06/03 13:18:18;;;;;;;3.45;1.42;;;24.80;99.90;;;;;;5078295;28;20020;-59
2022/06/03 13:20:43;;;;;;;7.57;1.63;;;24.70;99.90;;;;;;5079751;28;20055;-60
2022/06/03 13:23:29;;;;;;;5.00;1.45;;;24.80;99.90;;;;;;5084196;28;20498;-59
2022/06/03 13:26:15;;;;;;;3.22;1.60;;;25.00;99.90;;;;;;5084418;28;20475;-58
2022/06/03 13:28:43;;;;;;;2.63;1.60;;;24.80;99.90;;;;;;5082419;28;20040;-59
2022/06/03 13:31:22;;;;;;;3.17;1.60;;;24.50;99.90;;;;;;5083258;28;20476;-57
2022/06/03 13:34:09;;;;;;;4.72;1.48;;;24.80;99.90;;;;;;5078775;28;20077;-59
2022/06/03 13:36:50;;;;;;;2.38;1.30;;;24.70;99.90;;;;;;5088724;28;20371;-57
2022/06/03 13:39:27;;;;;;;3.15;1.40;;;24.70;99.90;;;;;;5089537;28;20024;-58
2022/06/03 13:45:09;;;;;;;5.30;1.60;;;24.30;99.90;;;;;;5090743;28;20191;-59
2022/06/03 13:47:39;;;;;;;2.80;1.50;;;24.30;99.90;;;;;;5088077;28;20527;-59
2022/06/03 13:50:14;;;;;;;6.85;1.80;;;24.40;99.90;;;;;;5090664;28;20053;-59
2022/06/03 13:52:46;;;;;;;3.33;1.70;;;24.40;99.90;;;;;;5090519;28;20032;-58
2022/06/03 13:55:23;;;;;;;5.00;2.10;;;24.30;99.90;;;;;;5079470;27;20122;-59
2022/06/03 13:57:54;;;;;;;4.80;2.00;;;24.20;99.90;;;;;;5086099;28;20050;-59
2022/06/03 14:00:24;;;;;;;4.35;1.92;;;24.10;99.90;;;;;;5083705;28;20040;-59
2022/06/03 14:02:55;;;;;;;4.97;2.25;;;24.00;99.90;;;;;;5087513;28;20023;-58
2022/06/03 14:05:50;;;;;;;5.05;2.42;;;24.10;99.90;;;;;;5077650;28;20479;-57
2022/06/03 14:08:26;;;;;;;9.15;2.55;;;24.00;99.90;;;;;;5082542;28;20039;-58
2022/06/03 14:11:03;;;;;;;6.82;2.47;;;24.10;99.90;;;;;;5091471;28;20274;-59
2022/06/03 14:13:55;;;;;;;7.85;2.47;;;24.20;99.90;;;;;;5092092;28;20467;-57
2022/06/03 14:16:42;;;;;;;5.47;2.40;;;24.10;99.90;;;;;;5083687;28;20020;-59
2022/06/03 14:19:08;;;;;;;6.03;2.35;;;23.90;99.90;;;;;;5095566;28;20030;-57
2022/06/03 14:21:41;;;;;;;8.00;2.30;;;24.00;99.90;;;;;;5096245;28;20020;-57
2022/06/03 14:24:10;;;;;;;7.35;2.30;;;24.10;99.90;;;;;;5093052;28;20034;-57
2022/06/03 14:26:50;;;;;;;5.75;2.50;;;24.10;99.90;;;;;;5094399;28;20498;-58
2022/06/03 14:29:45;;;;;;;4.80;2.30;;;24.10;99.90;;;;;;5092492;28;20484;-62
2022/06/03 14:32:14;;;;;;;7.32;2.20;;;24.20;99.90;;;;;;5094255;28;20046;-58
2022/06/03 14:34:44;;;;;;;7.22;2.08;;;24.00;99.90;;;;;;5092190;28;20022;-59
2022/06/03 14:37:38;;;;;;;4.43;2.10;;;24.00;99.90;;;;;;5088742;28;20024;-58
2022/06/03 14:40:08;;;;;;;5.68;1.80;;;24.20;99.90;;;;;;5091997;28;20036;-57
2022/06/03 14:42:38;;;;;;;5.05;2.05;;;24.10;99.90;;;;;;5099133;28;20047;-59
2022/06/03 14:45:07;;;;;;;3.50;1.60;;;24.20;99.90;;;;;;5088834;28;20470;-57